sensor_id;sensor_type;location;lat;lon;timestamp;pressure;altitude;pressure_sealevel;temperature;humidity
40596;BME280;26304;48.794;9.820;2023-04-19T00:02:44;96842.09;;;18.86;51.48
40596;BME280;26304;48.794;9.820;2023-04-19T00:08:29;96838.72;;;18.86;52.17
40596;BME280;26304;48.794;9.820;2023-04-19T00:14:11;96840.25;;;18.91;51.21
40596;BME280;26304;48.794;9.820;2023-04-19T00:19:55;96837.19;;;18.85;51.70
40596;BME280;26304;48.794;9.820;2023-04-19T00:25:38;96834.50;;;18.81;51.29
40596;BME280;26304;48.794;9.820;2023-04-19T00:31:20;96827.00;;;18.83;51.68
40596;BME280;26304;48.794;9.820;2023-04-19T00:37:04;96826.59;;;18.81;51.99
40596;BME280;26304;48.794;9.820;2023-04-19T00:42:46;96823.16;;;18.77;51.90
40596;BME280;26304;48.794;9.820;2023-04-19T00:48:29;96817.13;;;18.77;51.70
40596;BME280;26304;48.794;9.820;2023-04-19T00:54:13;96816.38;;;18.76;51.93
40596;BME280;26304;48.794;9.820;2023-04-19T00:59:56;96815.63;;;18.76;51.98
40596;BME280;26304;48.794;9.820;2023-04-19T01:05:39;96810.72;;;18.74;51.87
40596;BME280;26304;48.794;9.820;2023-04-19T01:11:23;96806.56;;;18.73;51.64
40596;BME280;26304;48.794;9.820;2023-04-19T01:17:06;96803.94;;;18.73;51.71
40596;BME280;26304;48.794;9.820;2023-04-19T01:22:50;96796.41;;;18.72;51.60
40596;BME280;26304;48.794;9.820;2023-04-19T01:28:32;96793.75;;;18.72;52.05
40596;BME280;26304;48.794;9.820;2023-04-19T01:34:15;96787.91;;;19.30;50.57
40596;BME280;26304;48.794;9.820;2023-04-19T01:39:58;96784.13;;;20.49;48.35
40596;BME280;26304;48.794;9.820;2023-04-19T01:45:41;96792.25;;;21.47;46.51
40596;BME280;26304;48.794;9.820;2023-04-19T01:51:23;96781.63;;;21.90;45.85
40596;BME280;26304;48.794;9.820;2023-04-19T01:57:07;96777.03;;;22.08;45.60
40596;BME280;26304;48.794;9.820;2023-04-19T02:02:49;96774.31;;;22.37;45.27
40596;BME280;26304;48.794;9.820;2023-04-19T02:08:32;96772.94;;;22.85;44.53
40596;BME280;26304;48.794;9.820;2023-04-19T02:14:16;96766.66;;;23.20;43.96
40596;BME280;26304;48.794;9.820;2023-04-19T02:19:58;96764.34;;;23.23;44.26
40596;BME280;26304;48.794;9.820;2023-04-19T02:25:40;96763.19;;;23.27;44.35
40596;BME280;26304;48.794;9.820;2023-04-19T02:31:24;96751.22;;;23.53;43.91
40596;BME280;26304;48.794;9.820;2023-04-19T02:37:06;96752.06;;;23.85;43.59
40596;BME280;26304;48.794;9.820;2023-04-19T02:42:49;96743.09;;;24.06;43.22
40596;BME280;26304;48.794;9.820;2023-04-19T02:48:33;96746.88;;;24.08;43.33
40596;BME280;26304;48.794;9.820;2023-04-19T02:54:15;96743.59;;;23.97;43.59
40596;BME280;26304;48.794;9.820;2023-04-19T02:59:58;96746.97;;;23.63;44.43
40596;BME280;26304;48.794;9.820;2023-04-19T03:05:41;96743.06;;;23.33;44.97
40596;BME280;26304;48.794;9.820;2023-04-19T03:11:24;96738.69;;;23.12;45.54
40596;BME280;26304;48.794;9.820;2023-04-19T03:17:06;96736.94;;;22.88;46.07
40596;BME280;26304;48.794;9.820;2023-04-19T03:22:50;96727.63;;;22.65;46.52
40596;BME280;26304;48.794;9.820;2023-04-19T03:28:33;96719.00;;;22.50;46.56
40596;BME280;26304;48.794;9.820;2023-04-19T03:34:16;96715.66;;;22.35;46.71
40596;BME280;26304;48.794;9.820;2023-04-19T03:39:59;96720.34;;;22.02;47.65
40596;BME280;26304;48.794;9.820;2023-04-19T03:45:42;96715.06;;;21.91;47.24
40596;BME280;26304;48.794;9.820;2023-04-19T03:51:24;96720.78;;;21.83;47.65
40596;BME280;26304;48.794;9.820;2023-04-19T03:57:10;96713.66;;;21.54;48.06
40596;BME280;26304;48.794;9.820;2023-04-19T04:02:53;96709.13;;;21.55;48.00
40596;BME280;26304;48.794;9.820;2023-04-19T04:08:36;96710.25;;;21.61;47.79
40596;BME280;26304;48.794;9.820;2023-04-19T04:14:20;96709.50;;;21.46;48.07
40596;BME280;26304;48.794;9.820;2023-04-19T04:20:02;96722.72;;;21.46;48.49
40596;BME280;26304;48.794;9.820;2023-04-19T04:25:45;96721.56;;;21.44;48.50
40596;BME280;26304;48.794;9.820;2023-04-19T04:31:29;96721.59;;;21.40;48.48
40596;BME280;26304;48.794;9.820;2023-04-19T04:37:11;96727.66;;;21.33;48.77
40596;BME280;26304;48.794;9.820;2023-04-19T04:42:54;96723.50;;;21.29;48.92
40596;BME280;26304;48.794;9.820;2023-04-19T04:48:37;96720.84;;;21.11;49.25
40596;BME280;26304;48.794;9.820;2023-04-19T04:54:20;96723.88;;;21.02;49.46
40596;BME280;26304;48.794;9.820;2023-04-19T05:00:04;96720.47;;;20.94;49.73
40596;BME280;26304;48.794;9.820;2023-04-19T05:05:48;96723.13;;;21.01;49.41
40596;BME280;26304;48.794;9.820;2023-04-19T05:11:30;96714.41;;;20.97;49.28
40596;BME280;26304;48.794;9.820;2023-04-19T05:17:13;96725.72;;;20.83;49.84
40596;BME280;26304;48.794;9.820;2023-04-19T05:23:00;96718.56;;;20.84;50.24
40596;BME280;26304;48.794;9.820;2023-04-19T05:28:43;96720.81;;;20.82;49.90
40596;BME280;26304;48.794;9.820;2023-04-19T05:34:26;96726.06;;;20.60;50.43
40596;BME280;26304;48.794;9.820;2023-04-19T05:40:10;96724.16;;;20.61;50.61
40596;BME280;26304;48.794;9.820;2023-04-19T05:45:53;96724.91;;;20.54;50.32
40596;BME280;26304;48.794;9.820;2023-04-19T05:51:36;96723.75;;;20.41;50.16
40596;BME280;26304;48.794;9.820;2023-04-19T05:57:20;96722.59;;;20.38;50.05
40596;BME280;26304;48.794;9.820;2023-04-19T06:03:02;96722.56;;;20.31;50.34
40596;BME280;26304;48.794;9.820;2023-04-19T06:08:44;96731.22;;;20.24;50.36
40596;BME280;26304;48.794;9.820;2023-04-19T06:14:28;96722.50;;;20.13;50.60
40596;BME280;26304;48.794;9.820;2023-04-19T06:20:11;96719.13;;;20.16;50.82
40596;BME280;26304;48.794;9.820;2023-04-19T06:25:54;96724.41;;;20.16;50.78
40596;BME280;26304;48.794;9.820;2023-04-19T06:31:37;96717.97;;;20.13;50.63
40596;BME280;26304;48.794;9.820;2023-04-19T06:37:20;96723.25;;;20.10;50.38
40596;BME280;26304;48.794;9.820;2023-04-19T06:43:02;96725.50;;;20.08;50.22
40596;BME280;26304;48.794;9.820;2023-04-19T06:48:46;96711.94;;;20.06;50.25
40596;BME280;26304;48.794;9.820;2023-04-19T06:54:28;96711.16;;;20.05;50.20
40596;BME280;26304;48.794;9.820;2023-04-19T07:00:12;96714.94;;;20.04;50.15
40596;BME280;26304;48.794;9.820;2023-04-19T07:05:56;96714.97;;;20.08;49.88
40596;BME280;26304;48.794;9.820;2023-04-19T07:11:38;96705.13;;;20.05;50.13
40596;BME280;26304;48.794;9.820;2023-04-19T07:17:21;96699.84;;;19.98;50.22
40596;BME280;26304;48.794;9.820;2023-04-19T07:23:04;96693.78;;;19.93;50.35
40596;BME280;26304;48.794;9.820;2023-04-19T07:28:49;96692.25;;;19.92;50.04
40596;BME280;26304;48.794;9.820;2023-04-19T07:34:32;96693.41;;;19.91;50.03
40596;BME280;26304;48.794;9.820;2023-04-19T07:40:16;96691.53;;;19.92;49.94
40596;BME280;26304;48.794;9.820;2023-04-19T07:45:58;96679.09;;;19.96;49.84
40596;BME280;26304;48.794;9.820;2023-04-19T07:51:40;96690.78;;;19.99;49.80
40596;BME280;26304;48.794;9.820;2023-04-19T07:57:24;96681.72;;;19.92;49.71
40596;BME280;26304;48.794;9.820;2023-04-19T08:03:06;96680.59;;;19.93;49.74
40596;BME280;26304;48.794;9.820;2023-04-19T08:08:49;96679.06;;;19.92;49.76
40596;BME280;26304;48.794;9.820;2023-04-19T08:14:33;96676.44;;;19.92;49.70
40596;BME280;26304;48.794;9.820;2023-04-19T08:20:15;96667.03;;;19.95;49.86
40596;BME280;26304;48.794;9.820;2023-04-19T08:25:57;96657.22;;;19.95;49.63
40596;BME280;26304;48.794;9.820;2023-04-19T08:31:44;96648.94;;;19.97;49.95
40596;BME280;26304;48.794;9.820;2023-04-19T08:37:27;96661.75;;;19.91;50.30
40596;BME280;26304;48.794;9.820;2023-04-19T08:43:09;96658.38;;;19.94;49.40
40596;BME280;26304;48.794;9.820;2023-04-19T08:48:53;96651.19;;;19.91;50.06
40596;BME280;26304;48.794;9.820;2023-04-19T08:54:36;96640.22;;;19.89;50.09
40596;BME280;26304;48.794;9.820;2023-04-19T09:00:20;96641.03;;;19.93;49.70
40596;BME280;26304;48.794;9.820;2023-04-19T09:06:04;96635.75;;;19.90;49.97
40596;BME280;26304;48.794;9.820;2023-04-19T09:11:47;96637.59;;;19.89;49.79
40596;BME280;26304;48.794;9.820;2023-04-19T09:17:30;96631.94;;;19.87;49.65
40596;BME280;26304;48.794;9.820;2023-04-19T09:23:17;96632.69;;;19.84;49.84
40596;BME280;26304;48.794;9.820;2023-04-19T09:29:01;96630.81;;;19.88;49.88
40596;BME280;26304;48.794;9.820;2023-04-19T09:34:50;96625.88;;;19.83;49.63
40596;BME280;26304;48.794;9.820;2023-04-19T09:40:35;96624.78;;;19.88;49.71
40596;BME280;26304;48.794;9.820;2023-04-19T09:46:31;96626.66;;;19.87;49.62
40596;BME280;26304;48.794;9.820;2023-04-19T09:52:14;96610.09;;;19.90;49.39
40596;BME280;26304;48.794;9.820;2023-04-19T09:57:58;96613.09;;;19.85;49.60
40596;BME280;26304;48.794;9.820;2023-04-19T10:03:41;96607.81;;;19.82;49.84
40596;BME280;26304;48.794;9.820;2023-04-19T10:09:24;96596.47;;;19.74;49.50
40596;BME280;26304;48.794;9.820;2023-04-19T10:15:09;96595.38;;;19.82;49.21
40596;BME280;26304;48.794;9.820;2023-04-19T10:20:57;96588.59;;;19.85;48.97
40596;BME280;26304;48.794;9.820;2023-04-19T10:27:09;96588.50;;;19.63;48.84
40596;BME280;26304;48.794;9.820;2023-04-19T10:32:55;96586.56;;;19.53;48.68
40596;BME280;26304;48.794;9.820;2023-04-19T10:38:39;96581.63;;;19.44;49.69
40596;BME280;26304;48.794;9.820;2023-04-19T10:44:23;96579.38;;;19.39;49.50
40596;BME280;26304;48.794;9.820;2023-04-19T10:50:07;96578.63;;;19.46;50.46
40596;BME280;26304;48.794;9.820;2023-04-19T10:55:50;96564.66;;;19.34;51.14
40596;BME280;26304;48.794;9.820;2023-04-19T11:01:32;96562.34;;;19.26;51.00
40596;BME280;26304;48.794;9.820;2023-04-19T11:07:18;96560.06;;;19.20;50.83
40596;BME280;26304;48.794;9.820;2023-04-19T11:13:01;96552.50;;;19.12;50.80
40596;BME280;26304;48.794;9.820;2023-04-19T11:18:43;96554.38;;;19.11;51.02
40596;BME280;26304;48.794;9.820;2023-04-19T11:24:27;96554.72;;;19.06;50.92
40596;BME280;26304;48.794;9.820;2023-04-19T11:30:11;96553.16;;;18.98;50.86
40596;BME280;26304;48.794;9.820;2023-04-19T11:35:54;96551.31;;;19.02;51.02
40596;BME280;26304;48.794;9.820;2023-04-19T11:41:38;96544.91;;;18.99;51.31
40596;BME280;26304;48.794;9.820;2023-04-19T11:47:21;96538.16;;;19.02;51.72
40596;BME280;26304;48.794;9.820;2023-04-19T11:53:11;96535.53;;;19.05;51.47
40596;BME280;26304;48.794;9.820;2023-04-19T11:58:56;96532.13;;;19.05;51.11
40596;BME280;26304;48.794;9.820;2023-04-19T12:04:39;96526.84;;;19.05;50.84
40596;BME280;26304;48.794;9.820;2023-04-19T12:10:22;96529.88;;;19.07;50.98
40596;BME280;26304;48.794;9.820;2023-04-19T12:16:06;96529.88;;;19.03;50.67
40596;BME280;26304;48.794;9.820;2023-04-19T12:21:48;96521.97;;;19.03;51.01
40596;BME280;26304;48.794;9.820;2023-04-19T12:27:31;96525.34;;;19.04;50.99
40596;BME280;26304;48.794;9.820;2023-04-19T12:33:14;96526.84;;;19.05;50.91
40596;BME280;26304;48.794;9.820;2023-04-19T12:38:57;96523.84;;;19.03;50.28
40596;BME280;26304;48.794;9.820;2023-04-19T12:44:39;96525.72;;;19.02;50.11
40596;BME280;26304;48.794;9.820;2023-04-19T12:50:23;96517.81;;;19.02;50.56
40596;BME280;26304;48.794;9.820;2023-04-19T12:56:05;96515.19;;;19.02;50.28
40596;BME280;26304;48.794;9.820;2023-04-19T13:01:48;96506.53;;;19.02;50.47
40596;BME280;26304;48.794;9.820;2023-04-19T13:07:32;96499.38;;;18.99;50.20
40596;BME280;26304;48.794;9.820;2023-04-19T13:13:14;96500.50;;;19.01;50.67
40596;BME280;26304;48.794;9.820;2023-04-19T13:18:56;96490.31;;;19.00;50.12
40596;BME280;26304;48.794;9.820;2023-04-19T13:24:40;96486.19;;;18.99;50.06
40596;BME280;26304;48.794;9.820;2023-04-19T13:30:23;96479.09;;;19.10;50.30
40596;BME280;26304;48.794;9.820;2023-04-19T13:36:06;96476.78;;;18.98;50.57
40596;BME280;26304;48.794;9.820;2023-04-19T13:41:50;96473.03;;;19.10;50.46
40596;BME280;26304;48.794;9.820;2023-04-19T13:47:32;96459.59;;;19.29;50.78
40596;BME280;26304;48.794;9.820;2023-04-19T13:53:14;96460.69;;;19.28;50.71
40596;BME280;26304;48.794;9.820;2023-04-19T13:59:01;96460.31;;;19.30;50.58
40596;BME280;26304;48.794;9.820;2023-04-19T14:04:43;96438.88;;;19.28;50.83
40596;BME280;26304;48.794;9.820;2023-04-19T14:10:26;96437.34;;;19.27;50.67
40596;BME280;26304;48.794;9.820;2023-04-19T14:16:10;96426.06;;;19.30;50.39
40596;BME280;26304;48.794;9.820;2023-04-19T14:21:52;96431.72;;;19.24;50.42
40596;BME280;26304;48.794;9.820;2023-04-19T14:27:35;96428.28;;;19.20;50.60
40596;BME280;26304;48.794;9.820;2023-04-19T14:33:19;96422.28;;;19.16;50.44
40596;BME280;26304;48.794;9.820;2023-04-19T14:39:02;96418.50;;;19.14;50.34
40596;BME280;26304;48.794;9.820;2023-04-19T14:44:44;96407.94;;;19.10;50.78
40596;BME280;26304;48.794;9.820;2023-04-19T14:50:28;96403.78;;;19.09;50.49
40596;BME280;26304;48.794;9.820;2023-04-19T14:56:11;96397.41;;;19.10;50.47
40596;BME280;26304;48.794;9.820;2023-04-19T15:01:53;96397.41;;;19.10;50.31
40596;BME280;26304;48.794;9.820;2023-04-19T15:07:37;96386.84;;;19.06;51.47
40596;BME280;26304;48.794;9.820;2023-04-19T15:13:19;96385.41;;;19.34;51.29
40596;BME280;26304;48.794;9.820;2023-04-19T15:19:02;96392.19;;;19.46;51.09
40596;BME280;26304;48.794;9.820;2023-04-19T15:24:48;96378.28;;;19.42;50.98
40596;BME280;26304;48.794;9.820;2023-04-19T15:30:31;96377.16;;;19.50;51.16
40596;BME280;26304;48.794;9.820;2023-04-19T15:36:13;96376.78;;;19.52;51.15
40596;BME280;26304;48.794;9.820;2023-04-19T15:41:57;96379.03;;;19.53;50.95
40596;BME280;26304;48.794;9.820;2023-04-19T15:47:40;96375.66;;;19.56;50.67
40596;BME280;26304;48.794;9.820;2023-04-19T15:53:22;96373.75;;;19.60;50.97
40596;BME280;26304;48.794;9.820;2023-04-19T15:59:06;96363.59;;;19.70;50.65
40596;BME280;26304;48.794;9.820;2023-04-19T16:04:48;96362.09;;;19.76;50.83
40596;BME280;26304;48.794;9.820;2023-04-19T16:10:31;96364.34;;;19.74;50.25
40596;BME280;26304;48.794;9.820;2023-04-19T16:16:15;96370.41;;;19.82;49.99
40596;BME280;26304;48.794;9.820;2023-04-19T16:21:57;96361.72;;;19.74;50.27
40596;BME280;26304;48.794;9.820;2023-04-19T16:27:43;96365.47;;;19.91;51.12
40596;BME280;26304;48.794;9.820;2023-04-19T16:33:32;96369.63;;;19.95;50.73
40596;BME280;26304;48.794;9.820;2023-04-19T16:39:15;96367.38;;;19.90;50.69
40596;BME280;26304;48.794;9.820;2023-04-19T16:45:00;96371.13;;;19.89;50.86
40596;BME280;26304;48.794;9.820;2023-04-19T16:50:43;96370.38;;;19.92;50.89
40596;BME280;26304;48.794;9.820;2023-04-19T16:56:26;96362.09;;;19.87;51.02
40596;BME280;26304;48.794;9.820;2023-04-19T17:02:09;96353.81;;;19.88;50.72
40596;BME280;26304;48.794;9.820;2023-04-19T17:07:52;96359.47;;;19.87;50.31
40596;BME280;26304;48.794;9.820;2023-04-19T17:13:35;96353.78;;;19.85;49.22
40596;BME280;26304;48.794;9.820;2023-04-19T17:19:17;96367.34;;;19.62;48.20
40596;BME280;26304;48.794;9.820;2023-04-19T17:25:01;96362.34;;;18.14;40.72
40596;BME280;26304;48.794;9.820;2023-04-19T17:30:44;96368.44;;;19.17;43.04
40596;BME280;26304;48.794;9.820;2023-04-19T17:36:26;96372.59;;;19.40;43.49
40596;BME280;26304;48.794;9.820;2023-04-19T17:42:10;96374.13;;;19.41;44.70
40596;BME280;26304;48.794;9.820;2023-04-19T17:47:52;96372.59;;;19.54;44.46
40596;BME280;26304;48.794;9.820;2023-04-19T17:53:36;96377.16;;;19.50;44.92
40596;BME280;26304;48.794;9.820;2023-04-19T17:59:19;96370.34;;;19.49;45.56
40596;BME280;26304;48.794;9.820;2023-04-19T18:05:02;96390.69;;;19.52;45.67
40596;BME280;26304;48.794;9.820;2023-04-19T18:10:44;96384.69;;;19.52;45.55
40596;BME280;26304;48.794;9.820;2023-04-19T18:16:28;96389.94;;;19.41;46.39
40596;BME280;26304;48.794;9.820;2023-04-19T18:22:11;96394.09;;;19.56;46.25
40596;BME280;26304;48.794;9.820;2023-04-19T18:27:53;96394.44;;;19.51;46.71
40596;BME280;26304;48.794;9.820;2023-04-19T18:33:39;96397.47;;;19.57;46.82
40596;BME280;26304;48.794;9.820;2023-04-19T18:39:21;96387.69;;;19.57;46.93
40596;BME280;26304;48.794;9.820;2023-04-19T18:45:05;96395.59;;;19.57;47.14
40596;BME280;26304;48.794;9.820;2023-04-19T18:50:49;96399.38;;;19.71;46.79
40596;BME280;26304;48.794;9.820;2023-04-19T18:56:31;96405.81;;;19.81;46.50
40596;BME280;26304;48.794;9.820;2023-04-19T19:02:18;96406.19;;;19.86;46.13
40596;BME280;26304;48.794;9.820;2023-04-19T19:08:05;96412.59;;;20.00;46.11
40596;BME280;26304;48.794;9.820;2023-04-19T19:13:49;96412.94;;;19.69;46.77
40596;BME280;26304;48.794;9.820;2023-04-19T19:19:32;96418.59;;;19.68;47.05
40596;BME280;26304;48.794;9.820;2023-04-19T19:25:16;96410.22;;;19.19;43.62
40596;BME280;26304;48.794;9.820;2023-04-19T19:30:58;96421.19;;;18.47;39.63
40596;BME280;26304;48.794;9.820;2023-04-19T19:36:42;96417.13;;;18.02;38.32
40596;BME280;26304;48.794;9.820;2023-04-19T19:42:26;96413.31;;;17.92;37.31
40596;BME280;26304;48.794;9.820;2023-04-19T19:48:12;96415.38;;;17.75;37.50
40596;BME280;26304;48.794;9.820;2023-04-19T19:53:55;96416.91;;;17.76;37.82
40596;BME280;26304;48.794;9.820;2023-04-19T19:59:39;96420.44;;;17.91;37.39
40596;BME280;26304;48.794;9.820;2023-04-19T20:05:21;96426.25;;;18.15;39.04
40596;BME280;26304;48.794;9.820;2023-04-19T20:11:03;96430.06;;;18.21;39.70
40596;BME280;26304;48.794;9.820;2023-04-19T20:16:47;96425.56;;;18.25;40.14
40596;BME280;26304;48.794;9.820;2023-04-19T20:22:30;96433.09;;;18.27;40.83
40596;BME280;26304;48.794;9.820;2023-04-19T20:28:12;96430.06;;;18.25;41.68
40596;BME280;26304;48.794;9.820;2023-04-19T20:33:56;96427.06;;;18.23;41.82
40596;BME280;26304;48.794;9.820;2023-04-19T20:39:39;96419.16;;;18.23;42.38
40596;BME280;26304;48.794;9.820;2023-04-19T20:45:21;96423.31;;;18.24;42.71
40596;BME280;26304;48.794;9.820;2023-04-19T20:51:06;96424.03;;;18.21;42.53
40596;BME280;26304;48.794;9.820;2023-04-19T20:56:51;96423.69;;;18.22;43.04
40596;BME280;26304;48.794;9.820;2023-04-19T21:02:34;96415.75;;;18.19;43.64
40596;BME280;26304;48.794;9.820;2023-04-19T21:08:18;96422.53;;;18.20;43.89
40596;BME280;26304;48.794;9.820;2023-04-19T21:14:00;96414.25;;;18.18;44.02
40596;BME280;26304;48.794;9.820;2023-04-19T21:19:42;96410.47;;;18.19;43.75
40596;BME280;26304;48.794;9.820;2023-04-19T21:25:26;96401.47;;;18.16;44.19
40596;BME280;26304;48.794;9.820;2023-04-19T21:31:08;96392.41;;;18.13;44.60
40596;BME280;26304;48.794;9.820;2023-04-19T21:36:51;96396.16;;;18.12;44.75
40596;BME280;26304;48.794;9.820;2023-04-19T21:42:35;96390.50;;;18.10;44.79
40596;BME280;26304;48.794;9.820;2023-04-19T21:48:17;96378.13;;;18.11;44.83
40596;BME280;26304;48.794;9.820;2023-04-19T21:54:00;96384.13;;;18.11;44.85
40596;BME280;26304;48.794;9.820;2023-04-19T21:59:43;96381.13;;;18.09;45.13
40596;BME280;26304;48.794;9.820;2023-04-19T22:05:26;96369.81;;;18.09;44.79
40596;BME280;26304;48.794;9.820;2023-04-19T22:11:09;96372.81;;;18.07;45.10
40596;BME280;26304;48.794;9.820;2023-04-19T22:16:53;96359.28;;;18.05;45.67
40596;BME280;26304;48.794;9.820;2023-04-19T22:22:36;96357.78;;;18.04;45.05
40596;BME280;26304;48.794;9.820;2023-04-19T22:28:18;96349.13;;;18.00;45.41
40596;BME280;26304;48.794;9.820;2023-04-19T22:34:02;96348.72;;;17.98;45.28
40596;BME280;26304;48.794;9.820;2023-04-19T22:39:45;96343.06;;;17.96;45.32
40596;BME280;26304;48.794;9.820;2023-04-19T22:45:27;96336.69;;;17.97;45.75
40596;BME280;26304;48.794;9.820;2023-04-19T22:51:11;96329.91;;;17.96;45.76
40596;BME280;26304;48.794;9.820;2023-04-19T22:56:53;96319.75;;;17.91;45.69
40596;BME280;26304;48.794;9.820;2023-04-19T23:02:36;96308.13;;;17.92;45.70
40596;BME280;26304;48.794;9.820;2023-04-19T23:08:20;96309.59;;;17.89;46.00
40596;BME280;26304;48.794;9.820;2023-04-19T23:14:02;96306.59;;;17.91;45.41
40596;BME280;26304;48.794;9.820;2023-04-19T23:19:45;96304.28;;;17.86;46.21
40596;BME280;26304;48.794;9.820;2023-04-19T23:25:28;96296.34;;;17.82;45.87
40596;BME280;26304;48.794;9.820;2023-04-19T23:31:11;96292.22;;;17.77;45.75
40596;BME280;26304;48.794;9.820;2023-04-19T23:36:53;96287.72;;;17.78;45.84
40596;BME280;26304;48.794;9.820;2023-04-19T23:42:38;96280.19;;;17.76;46.28
40596;BME280;26304;48.794;9.820;2023-04-19T23:48:20;96279.06;;;17.77;45.98
40596;BME280;26304;48.794;9.820;2023-04-19T23:54:02;96264.41;;;17.73;46.27
40596;BME280;26304;48.794;9.820;2023-04-19T23:59:46;96255.34;;;17.70;46.03
